createdAt,value
2023-09-27T00:00:11.648Z,101412.66
2023-09-27T00:01:14.902Z,101347.31
2023-09-27T00:02:18.325Z,101434.75
2023-09-27T00:03:21.434Z,101434.00
2023-09-27T00:04:24.497Z,101434.97
2023-09-27T00:05:27.931Z,101436.03
2023-09-27T00:06:31.072Z,101430.72
2023-09-27T00:07:35.071Z,101439.53
2023-09-27T00:08:38.164Z,101432.84
2023-09-27T00:09:41.147Z,101428.50
2023-09-27T00:10:44.041Z,101441.22
2023-09-27T00:11:46.711Z,101431.66
2023-09-27T00:12:50.257Z,101437.09
2023-09-27T00:13:52.930Z,101429.00
2023-09-27T00:14:58.861Z,101430.69
2023-09-27T00:16:01.782Z,101428.38
2023-09-27T00:17:04.988Z,101429.44
2023-09-27T00:18:11.078Z,101414.56
2023-09-27T00:19:14.280Z,101435.78
2023-09-27T00:20:18.612Z,101437.37
2023-09-27T00:21:21.566Z,101400.97
2023-09-27T00:22:28.348Z,101430.69
2023-09-27T00:23:31.526Z,101424.75
2023-09-27T00:24:35.244Z,101427.06
2023-09-27T00:25:38.132Z,101423.28
2023-09-27T00:26:40.984Z,101431.31
2023-09-27T00:27:44.341Z,101432.28
2023-09-27T00:28:47.538Z,101416.66
2023-09-27T00:29:50.344Z,101434.94
2023-09-27T00:30:53.383Z,101426.22
2023-09-27T00:31:56.035Z,101433.53
2023-09-27T00:33:00.530Z,101436.19
2023-09-27T00:34:03.749Z,101434.59
2023-09-27T00:35:09.599Z,101433.19
2023-09-27T00:36:12.861Z,101433.19
2023-09-27T00:37:15.803Z,101442.09
2023-09-27T00:38:18.507Z,101437.94
2023-09-27T00:39:21.970Z,101431.59
2023-09-27T00:40:26.263Z,101438.62
2023-09-27T00:41:29.277Z,101435.00
2023-09-27T00:42:31.992Z,101440.59
2023-09-27T00:43:35.352Z,101431.91
2023-09-27T00:44:38.307Z,101438.06
2023-09-27T00:45:41.346Z,101434.56
2023-09-27T00:46:45.016Z,101444.22
2023-09-27T00:47:50.529Z,101431.81
2023-09-27T00:48:54.178Z,101434.56
2023-09-27T00:49:57.620Z,101430.75
2023-09-27T00:51:01.699Z,101435.28
2023-09-27T00:52:05.471Z,101425.09
2023-09-27T00:53:08.193Z,101428.50
2023-09-27T00:54:12.368Z,101437.94
2023-09-27T00:55:20.655Z,101435.50
2023-09-27T00:56:24.373Z,101432.12
2023-09-27T00:57:27.143Z,101427.53
2023-09-27T00:58:33.816Z,101431.06
2023-09-27T00:59:38.160Z,101429.34
2023-09-27T01:00:41.558Z,101422.66
2023-09-27T01:01:45.771Z,101426.34
2023-09-27T01:02:49.070Z,101428.12
2023-09-27T01:03:52.537Z,101432.53
2023-09-27T01:04:56.038Z,101427.22
2023-09-27T01:06:00.413Z,101429.09
2023-09-27T01:07:03.163Z,101426.44
2023-09-27T01:08:06.955Z,101421.94
2023-09-27T01:09:09.951Z,101385.97
2023-09-27T01:10:12.942Z,101431.94
2023-09-27T01:11:16.374Z,101427.50
2023-09-27T01:12:19.901Z,101425.69
2023-09-27T01:13:23.086Z,101430.78
2023-09-27T01:14:26.199Z,101419.09
2023-09-27T01:15:28.924Z,101438.00
2023-09-27T01:16:33.407Z,101435.19
2023-09-27T01:17:37.190Z,101433.44
2023-09-27T01:18:40.420Z,101434.50
2023-09-27T01:19:43.392Z,101429.59
2023-09-27T01:20:46.429Z,101436.91
2023-09-27T01:21:49.817Z,101433.50
2023-09-27T01:23:03.513Z,101416.06
2023-09-27T01:24:07.795Z,101442.19
2023-09-27T01:25:16.320Z,101450.91
2023-09-27T01:26:22.039Z,101434.56
2023-09-27T01:27:25.869Z,101447.19
2023-09-27T01:28:30.673Z,101431.78
2023-09-27T01:29:34.586Z,101433.84
2023-09-27T01:30:38.793Z,101445.28
2023-09-27T01:31:41.848Z,101441.78
2023-09-27T01:32:44.907Z,101443.59
2023-09-27T01:33:47.884Z,101443.78
2023-09-27T01:34:50.795Z,101403.88
2023-09-27T01:35:55.393Z,101443.78
2023-09-27T01:36:58.999Z,101447.28
2023-09-27T01:38:02.790Z,101435.28
2023-09-27T01:39:08.217Z,101445.59
2023-09-27T01:40:11.423Z,101449.41
2023-09-27T01:41:15.001Z,101442.19
2023-09-27T01:42:17.642Z,101440.37
2023-09-27T01:43:20.807Z,101437.72
2023-09-27T01:44:23.819Z,101438.47
2023-09-27T01:45:27.582Z,101444.31
2023-09-27T01:46:30.521Z,101440.06
2023-09-27T01:47:34.382Z,101437.50
2023-09-27T01:48:37.725Z,101433.34
2023-09-27T01:49:40.416Z,101431.75
2023-09-27T01:50:43.467Z,101437.13
2023-09-27T01:51:46.732Z,101437.13
2023-09-27T01:52:49.746Z,101397.31
2023-09-27T01:53:53.480Z,101438.09
2023-09-27T01:54:56.168Z,101436.28
2023-09-27T01:55:58.879Z,101438.94
2023-09-27T01:57:01.792Z,101443.19
2023-09-27T01:58:05.262Z,101441.31
2023-09-27T01:59:08.532Z,101445.66
2023-09-27T02:00:15.369Z,101446.50
2023-09-27T02:01:19.020Z,101445.66
2023-09-27T02:02:21.760Z,101448.50
2023-09-27T02:03:24.439Z,101447.53
2023-09-27T02:04:27.158Z,101442.22
2023-09-27T02:05:31.494Z,101450.19
2023-09-27T02:06:34.684Z,101450.94
2023-09-27T02:07:42.029Z,101454.34
2023-09-27T02:08:45.166Z,101453.50
2023-09-27T02:09:47.822Z,101444.88
2023-09-27T02:10:53.682Z,101448.94
2023-09-27T02:11:56.955Z,101401.38
2023-09-27T02:12:59.902Z,101457.84
2023-09-27T02:14:05.673Z,101452.53
2023-09-27T02:15:10.401Z,101451.69
2023-09-27T02:16:13.435Z,101451.69
2023-09-27T02:17:16.884Z,101451.59
2023-09-27T02:18:20.211Z,101444.59
2023-09-27T02:19:23.216Z,101449.81
2023-09-27T02:20:26.360Z,101450.53
2023-09-27T02:21:29.577Z,101403.69
2023-09-27T02:22:32.356Z,101414.09
2023-09-27T02:23:35.585Z,101451.59
2023-09-27T02:24:39.467Z,101445.44
2023-09-27T02:25:42.544Z,101445.66
2023-09-27T02:26:45.712Z,101444.72
2023-09-27T02:27:48.606Z,101437.34
2023-09-27T02:28:52.188Z,101455.31
2023-09-27T02:29:55.162Z,101449.12
2023-09-27T02:30:59.572Z,101454.44
2023-09-27T02:32:02.843Z,101451.91
2023-09-27T02:33:05.970Z,101454.63
2023-09-27T02:34:09.338Z,101447.66
2023-09-27T02:35:16.725Z,101457.41
2023-09-27T02:36:19.712Z,101452.31
2023-09-27T02:37:22.792Z,101458.44
2023-09-27T02:38:27.200Z,101457.59
2023-09-27T02:39:30.465Z,101455.78
2023-09-27T02:40:33.398Z,101458.31
2023-09-27T02:41:36.100Z,101455.78
2023-09-27T02:42:45.554Z,101451.66
2023-09-27T02:43:48.237Z,101451.75
2023-09-27T02:44:51.903Z,101462.91
2023-09-27T02:45:54.895Z,101435.47
2023-09-27T02:46:57.897Z,101457.03
2023-09-27T02:48:01.978Z,101462.91
2023-09-27T02:49:05.972Z,101454.94
2023-09-27T02:50:12.363Z,101449.84
2023-09-27T02:51:16.739Z,101461.84
2023-09-27T02:52:19.961Z,101419.53
2023-09-27T02:53:23.237Z,101454.84
2023-09-27T02:54:26.301Z,101457.47
2023-09-27T02:55:29.523Z,101455.69
2023-09-27T02:56:32.873Z,101456.63
2023-09-27T02:57:35.998Z,101457.88
2023-09-27T02:58:39.194Z,101453.63
2023-09-27T02:59:42.202Z,101452.69
2023-09-27T03:00:45.388Z,101457.16
2023-09-27T03:01:48.576Z,101458.00
2023-09-27T03:02:52.311Z,101461.56
2023-09-27T03:03:57.149Z,101462.34
2023-09-27T03:05:00.442Z,101466.78
2023-09-27T03:06:05.604Z,101465.62
2023-09-27T03:07:10.093Z,101465.62
2023-09-27T03:08:13.429Z,101463.81
2023-09-27T03:09:17.235Z,101465.75
2023-09-27T03:10:20.276Z,101447.59
2023-09-27T03:11:24.178Z,101460.53
2023-09-27T03:12:28.159Z,101433.44
2023-09-27T03:13:31.011Z,101466.66
2023-09-27T03:14:33.950Z,101462.12
2023-09-27T03:15:37.319Z,101453.75
2023-09-27T03:16:40.930Z,101461.28
2023-09-27T03:17:44.428Z,101463.09
2023-09-27T03:18:48.647Z,101460.66
2023-09-27T03:19:51.577Z,101459.69
2023-09-27T03:20:55.250Z,101463.19
2023-09-27T03:21:58.457Z,101462.12
2023-09-27T03:23:01.461Z,101456.19
2023-09-27T03:24:05.160Z,101452.69
2023-09-27T03:25:08.960Z,101450.13
2023-09-27T03:26:11.636Z,101451.94
2023-09-27T03:27:15.545Z,101451.09
2023-09-27T03:28:18.676Z,101445.22
2023-09-27T03:29:21.584Z,101419.94
2023-09-27T03:30:25.136Z,101452.97
2023-09-27T03:31:28.155Z,101453.81
2023-09-27T03:32:33.172Z,101453.81
2023-09-27T03:33:36.170Z,101453.81
2023-09-27T03:34:39.125Z,101452.97
2023-09-27T03:35:42.767Z,101450.34
2023-09-27T03:36:45.521Z,101445.16
2023-09-27T03:37:48.587Z,101446.19
2023-09-27T03:38:51.764Z,101446.84
2023-09-27T03:39:54.579Z,101452.12
2023-09-27T03:40:57.770Z,101405.47
2023-09-27T03:42:00.646Z,101446.06
2023-09-27T03:43:04.093Z,101445.22
2023-09-27T03:44:08.361Z,101400.19
2023-09-27T03:45:11.483Z,101449.69
2023-09-27T03:46:14.530Z,101444.59
2023-09-27T03:47:18.295Z,101451.69
2023-09-27T03:48:21.457Z,101447.13
2023-09-27T03:49:24.363Z,101450.63
2023-09-27T03:50:27.366Z,101453.28
2023-09-27T03:51:30.376Z,101448.00
2023-09-27T03:52:33.070Z,101450.72
2023-09-27T03:53:37.027Z,101449.88
2023-09-27T03:54:40.006Z,101446.28
2023-09-27T03:55:43.125Z,101449.88
2023-09-27T03:56:48.031Z,101449.88
2023-09-27T03:57:50.764Z,101456.03
2023-09-27T03:58:54.304Z,101450.72
2023-09-27T03:59:58.340Z,101453.38
2023-09-27T04:01:01.261Z,101452.41
2023-09-27T04:02:04.437Z,101450.72
2023-09-27T04:03:07.699Z,101443.63
2023-09-27T04:04:10.652Z,101440.13
2023-09-27T04:05:14.872Z,101444.66
2023-09-27T04:06:17.750Z,101440.25
2023-09-27T04:07:21.262Z,101442.00
2023-09-27T04:08:24.452Z,101448.19
2023-09-27T04:09:27.430Z,101442.88
2023-09-27T04:10:30.763Z,101446.47
2023-09-27T04:11:33.576Z,101446.47
2023-09-27T04:12:37.498Z,101449.12
2023-09-27T04:13:41.102Z,101451.69
2023-09-27T04:14:43.945Z,101438.91
2023-09-27T04:15:50.671Z,101437.59
2023-09-27T04:17:00.777Z,101435.44
2023-09-27T04:18:05.191Z,101443.94
2023-09-27T04:19:08.254Z,101447.44
2023-09-27T04:20:20.592Z,101419.38
2023-09-27T04:21:23.575Z,101447.50
2023-09-27T04:22:26.474Z,101451.97
2023-09-27T04:23:29.833Z,101433.37
2023-09-27T04:24:33.017Z,101452.06
2023-09-27T04:25:39.020Z,101448.47
2023-09-27T04:26:43.085Z,101462.75
2023-09-27T04:27:48.653Z,101453.87
2023-09-27T04:28:55.381Z,101461.81
2023-09-27T04:30:01.366Z,101460.03
2023-09-27T04:31:05.214Z,101455.44
2023-09-27T04:32:15.305Z,101434.03
2023-09-27T04:33:18.317Z,101461.06
2023-09-27T04:34:21.662Z,101463.31
2023-09-27T04:35:24.985Z,101464.28
2023-09-27T04:36:27.726Z,101456.72
2023-09-27T04:37:30.339Z,101465.13
2023-09-27T04:38:33.331Z,101432.06
2023-09-27T04:39:36.561Z,101467.00
2023-09-27T04:40:39.837Z,101472.88
2023-09-27T04:41:43.938Z,101468.88
2023-09-27T04:42:47.418Z,101476.34
2023-09-27T04:43:50.382Z,101473.59
2023-09-27T04:44:53.633Z,101482.31
2023-09-27T04:45:56.356Z,101472.56
2023-09-27T04:46:59.291Z,101477.78
2023-09-27T04:48:02.013Z,101475.88
2023-09-27T04:49:04.735Z,101480.22
2023-09-27T04:50:11.720Z,101480.09
2023-09-27T04:51:14.773Z,101473.97
2023-09-27T04:52:17.828Z,101481.91
2023-09-27T04:53:20.804Z,101480.09
2023-09-27T04:54:23.652Z,101480.09
2023-09-27T04:55:26.538Z,101469.62
2023-09-27T04:56:30.809Z,101487.13
2023-09-27T04:57:33.504Z,101470.66
2023-09-27T04:58:38.546Z,101485.13
2023-09-27T04:59:43.026Z,101472.16
2023-09-27T05:00:46.328Z,101483.12
2023-09-27T05:01:49.130Z,101482.16
2023-09-27T05:02:53.380Z,101481.13
2023-09-27T05:03:56.566Z,101478.41
2023-09-27T05:04:59.343Z,101481.50
2023-09-27T05:06:02.364Z,101488.09
2023-09-27T05:07:05.428Z,101444.25
2023-09-27T05:08:08.467Z,101483.63
2023-09-27T05:09:12.873Z,101481.13
2023-09-27T05:10:16.108Z,101464.37
2023-09-27T05:11:22.324Z,101483.59
2023-09-27T05:12:24.998Z,101488.41
2023-09-27T05:13:28.200Z,101482.13
2023-09-27T05:14:31.171Z,101481.41
2023-09-27T05:15:34.194Z,101450.22
2023-09-27T05:16:37.436Z,101476.31
2023-09-27T05:17:40.224Z,101491.53
2023-09-27T05:18:43.298Z,101487.37
2023-09-27T05:19:46.026Z,101486.94
2023-09-27T05:20:49.041Z,101488.34
2023-09-27T05:21:51.936Z,101482.94
2023-09-27T05:22:54.795Z,101466.06
2023-09-27T05:23:57.734Z,101472.44
2023-09-27T05:25:00.617Z,101480.59
2023-09-27T05:26:03.546Z,101475.66
2023-09-27T05:27:07.822Z,101479.34
2023-09-27T05:28:10.915Z,101473.06
2023-09-27T05:29:16.694Z,101476.78
2023-09-27T05:30:22.455Z,101482.50
2023-09-27T05:31:25.409Z,101474.00
2023-09-27T05:32:28.901Z,101476.72
2023-09-27T05:33:31.856Z,101477.47
2023-09-27T05:34:35.352Z,101481.25
2023-09-27T05:35:38.096Z,101472.44
2023-09-27T05:36:41.859Z,101481.56
2023-09-27T05:37:45.946Z,101480.13
2023-09-27T05:38:48.904Z,101476.56
2023-09-27T05:39:51.661Z,101483.19
2023-09-27T05:40:54.398Z,101479.84
2023-09-27T05:41:57.320Z,101477.13
2023-09-27T05:43:02.778Z,101484.97
2023-09-27T05:44:06.021Z,101458.94
2023-09-27T05:45:13.317Z,101474.41
2023-09-27T05:46:16.520Z,101482.44
2023-09-27T05:47:19.743Z,101483.03
2023-09-27T05:48:22.806Z,101481.31
2023-09-27T05:49:26.978Z,101483.88
2023-09-27T05:50:29.879Z,101486.22
2023-09-27T05:51:32.540Z,101484.16
2023-09-27T05:52:38.414Z,101489.16
2023-09-27T05:53:41.646Z,101493.16
2023-09-27T05:54:46.258Z,101494.00
2023-09-27T05:55:49.533Z,101499.62
2023-09-27T05:56:55.300Z,101498.53
2023-09-27T05:57:58.226Z,101496.38
2023-09-27T05:59:01.291Z,101495.75
2023-09-27T06:00:15.020Z,101500.16
2023-09-27T06:01:20.703Z,101496.84
2023-09-27T06:02:32.158Z,101493.94
2023-09-27T06:03:38.738Z,101495.09
2023-09-27T06:04:41.808Z,101461.75
2023-09-27T06:05:44.456Z,101505.16
2023-09-27T06:06:47.399Z,101499.09
2023-09-27T06:07:50.256Z,101501.41
2023-09-27T06:08:53.646Z,101508.19
2023-09-27T06:09:56.795Z,101502.75
2023-09-27T06:11:00.781Z,101492.09
2023-09-27T06:12:04.086Z,101505.91
2023-09-27T06:13:07.141Z,101497.28
2023-09-27T06:14:13.104Z,101509.28
2023-09-27T06:15:16.257Z,101499.47
2023-09-27T06:16:20.451Z,101501.75
2023-09-27T06:17:24.387Z,101513.75
2023-09-27T06:18:27.920Z,101506.25
2023-09-27T06:19:33.785Z,101508.06
2023-09-27T06:20:40.186Z,101508.06
2023-09-27T06:21:44.270Z,101508.56
2023-09-27T06:22:51.867Z,101512.31
2023-09-27T06:23:54.509Z,101516.31
2023-09-27T06:24:58.125Z,101516.41
2023-09-27T06:26:00.814Z,101514.34
2023-09-27T06:27:04.151Z,101515.09
2023-09-27T06:28:07.134Z,101513.66
2023-09-27T06:29:10.482Z,101518.94
2023-09-27T06:30:14.311Z,101486.62
2023-09-27T06:31:17.271Z,101519.31
2023-09-27T06:32:20.208Z,101519.91
2023-09-27T06:33:23.316Z,101519.53
2023-09-27T06:34:27.421Z,101520.63
2023-09-27T06:35:33.352Z,101520.63
2023-09-27T06:36:36.369Z,101521.09
2023-09-27T06:37:39.612Z,101522.31
2023-09-27T06:38:44.937Z,101520.97
2023-09-27T06:39:47.982Z,101520.63
2023-09-27T06:40:50.972Z,101518.37
2023-09-27T06:41:53.884Z,101519.06
2023-09-27T06:42:57.012Z,101523.78
2023-09-27T06:44:01.786Z,101525.63
2023-09-27T06:45:05.418Z,101523.25
2023-09-27T06:46:11.809Z,101524.78
2023-09-27T06:47:14.711Z,101525.84
2023-09-27T06:48:20.047Z,101526.59
2023-09-27T06:49:23.118Z,101531.19
2023-09-27T06:50:26.174Z,101530.22
2023-09-27T06:51:28.921Z,101522.63
2023-09-27T06:52:32.364Z,101532.59
2023-09-27T06:53:35.449Z,101516.16
2023-09-27T06:54:39.123Z,101525.81
2023-09-27T06:55:42.855Z,101535.13
2023-09-27T06:56:45.766Z,101538.37
2023-09-27T06:57:53.670Z,101533.75
2023-09-27T06:58:57.609Z,101530.16
2023-09-27T07:00:00.791Z,101534.19
2023-09-27T07:01:03.686Z,101533.75
2023-09-27T07:02:07.445Z,101528.97
2023-09-27T07:03:10.548Z,101535.81
2023-09-27T07:04:13.675Z,101529.03
2023-09-27T07:05:18.022Z,101529.09
2023-09-27T07:06:20.711Z,101524.31
2023-09-27T07:07:23.360Z,101532.78
2023-09-27T07:08:26.260Z,101524.19
2023-09-27T07:09:29.185Z,101523.47
2023-09-27T07:10:32.108Z,101530.66
2023-09-27T07:11:35.487Z,101525.25
2023-09-27T07:12:38.289Z,101533.47
2023-09-27T07:13:42.657Z,101526.88
2023-09-27T07:14:45.345Z,101513.53
2023-09-27T07:15:49.290Z,101528.25
2023-09-27T07:17:00.833Z,101524.19
2023-09-27T07:18:06.170Z,101531.16
2023-09-27T07:19:10.420Z,101527.12
2023-09-27T07:20:36.730Z,101524.94
2023-09-27T07:21:39.836Z,101527.94
2023-09-27T07:22:43.707Z,101527.56
2023-09-27T07:23:46.591Z,101535.81
2023-09-27T07:24:50.058Z,101530.59
2023-09-27T07:25:53.876Z,101523.78
2023-09-27T07:26:56.888Z,101529.00
2023-09-27T07:28:00.014Z,101501.81
2023-09-27T07:29:02.677Z,101522.66
2023-09-27T07:30:06.209Z,101520.16
2023-09-27T07:31:09.551Z,101525.50
2023-09-27T07:32:12.659Z,101530.06
2023-09-27T07:33:18.801Z,101525.37
2023-09-27T07:34:21.615Z,101523.84
2023-09-27T07:35:25.999Z,101529.78
2023-09-27T07:36:29.070Z,101526.81
2023-09-27T07:37:33.834Z,101519.38
2023-09-27T07:38:39.320Z,101525.97
2023-09-27T07:39:44.467Z,101528.09
2023-09-27T07:40:50.521Z,101512.03
2023-09-27T07:41:54.071Z,101531.31
2023-09-27T07:42:57.444Z,101536.47
2023-09-27T07:44:00.311Z,101540.03
2023-09-27T07:45:03.538Z,101524.63
2023-09-27T07:46:08.515Z,101524.06
2023-09-27T07:47:12.217Z,101538.69
2023-09-27T07:48:15.884Z,101532.22
2023-09-27T07:49:19.283Z,101544.59
2023-09-27T07:50:23.915Z,101533.97
2023-09-27T07:51:26.809Z,101539.72
2023-09-27T07:52:29.670Z,101530.00
2023-09-27T07:53:32.906Z,101531.97
2023-09-27T07:54:36.416Z,101535.41
2023-09-27T07:55:48.071Z,101474.88
2023-09-27T07:56:51.960Z,101536.09
2023-09-27T07:57:55.983Z,101527.91
2023-09-27T07:58:59.940Z,101539.66
2023-09-27T08:00:09.782Z,101536.78
2023-09-27T08:01:21.295Z,101537.59
2023-09-27T08:02:24.578Z,101540.91
2023-09-27T08:03:28.661Z,101536.22
2023-09-27T08:04:31.508Z,101532.34
2023-09-27T08:05:43.567Z,101534.63
2023-09-27T08:06:47.676Z,101543.31
2023-09-27T08:07:52.243Z,101529.97
2023-09-27T08:08:55.756Z,101536.16
2023-09-27T08:10:19.210Z,101531.94
2023-09-27T08:11:23.986Z,101530.22
2023-09-27T08:12:29.214Z,101537.41
2023-09-27T08:13:33.217Z,101534.22
2023-09-27T08:14:38.030Z,101529.47
2023-09-27T08:15:44.736Z,101536.59
2023-09-27T08:16:47.964Z,101543.22
2023-09-27T08:17:51.081Z,101533.91
2023-09-27T08:18:54.282Z,101527.63
2023-09-27T08:19:57.567Z,101538.91
2023-09-27T08:21:00.880Z,101536.78
2023-09-27T08:22:04.292Z,101533.53
2023-09-27T08:23:07.298Z,101474.78
2023-09-27T08:24:10.441Z,101537.25
2023-09-27T08:25:16.820Z,101529.94
2023-09-27T08:26:20.635Z,101499.72
2023-09-27T08:27:23.430Z,101516.19
2023-09-27T08:28:26.892Z,101534.19
2023-09-27T08:29:30.303Z,101493.19
2023-09-27T08:30:33.583Z,101522.91
2023-09-27T08:31:39.222Z,101535.81
2023-09-27T08:32:43.278Z,101506.03
2023-09-27T08:33:46.276Z,101525.37
2023-09-27T08:34:50.100Z,101528.59
2023-09-27T08:35:53.935Z,101527.94
2023-09-27T08:36:56.589Z,101524.69
2023-09-27T08:37:59.739Z,101522.63
2023-09-27T08:39:03.566Z,101518.78
2023-09-27T08:40:14.659Z,101516.69
2023-09-27T08:41:19.419Z,101515.72
2023-09-27T08:42:24.494Z,101519.31
2023-09-27T08:43:30.706Z,101510.59
2023-09-27T08:44:34.181Z,101509.41
2023-09-27T08:45:39.537Z,101515.22
2023-09-27T08:46:42.633Z,101513.12
2023-09-27T08:47:46.560Z,101508.34
2023-09-27T08:48:50.743Z,101511.37
2023-09-27T08:49:55.001Z,101514.78
2023-09-27T08:51:04.411Z,101489.34
2023-09-27T08:52:10.178Z,101503.84
2023-09-27T08:53:13.902Z,101513.19
2023-09-27T08:54:18.830Z,101508.78
2023-09-27T08:55:21.730Z,101506.59
2023-09-27T08:56:27.152Z,101506.78
2023-09-27T08:57:31.115Z,101503.78
2023-09-27T08:58:36.519Z,101499.72
2023-09-27T08:59:40.382Z,101491.34
2023-09-27T09:00:44.394Z,101505.16
2023-09-27T09:01:49.086Z,101501.78
2023-09-27T09:02:59.255Z,101498.59
2023-09-27T09:04:05.792Z,101498.72
2023-09-27T09:05:13.317Z,101506.66
2023-09-27T09:06:17.617Z,101499.59
2023-09-27T09:07:20.932Z,101504.09
2023-09-27T09:08:42.252Z,101502.09
2023-09-27T09:09:49.405Z,101467.75
2023-09-27T09:10:55.072Z,101503.41
2023-09-27T09:12:02.293Z,101474.31
2023-09-27T09:13:06.510Z,101488.59
2023-09-27T09:14:11.814Z,101506.12
2023-09-27T09:15:42.625Z,101497.19
2023-09-27T09:16:55.607Z,101496.53
2023-09-27T09:18:01.416Z,101495.31
2023-09-27T09:19:37.498Z,101493.25
2023-09-27T09:20:50.897Z,101494.66
2023-09-27T09:22:01.600Z,101490.91
2023-09-27T09:24:21.711Z,101485.22
2023-09-27T09:25:25.582Z,101467.03
2023-09-27T09:26:31.201Z,101491.59
2023-09-27T09:27:34.419Z,101494.47
2023-09-27T09:28:57.772Z,101497.66
2023-09-27T09:30:03.619Z,101481.09
2023-09-27T09:31:24.987Z,101489.12
2023-09-27T09:32:30.600Z,101467.34
2023-09-27T09:33:39.164Z,101475.00
2023-09-27T09:34:45.965Z,101483.59
2023-09-27T09:35:49.462Z,101485.88
2023-09-27T09:36:53.370Z,101484.81
2023-09-27T09:37:56.225Z,101487.81
2023-09-27T09:39:14.792Z,101498.50
2023-09-27T09:40:18.408Z,101494.69
2023-09-27T09:41:21.750Z,101481.25
2023-09-27T09:42:35.235Z,101485.09
2023-09-27T09:43:40.128Z,101485.22
2023-09-27T09:44:43.292Z,101490.06
2023-09-27T09:45:46.215Z,101481.25
2023-09-27T09:46:50.186Z,101483.72
2023-09-27T09:47:53.739Z,101484.69
2023-09-27T09:48:56.464Z,101478.03
2023-09-27T09:49:59.803Z,101487.75
2023-09-27T09:51:08.593Z,101485.16
2023-09-27T09:52:12.993Z,101486.50
2023-09-27T09:53:17.411Z,101482.78
2023-09-27T09:54:30.325Z,101483.97
2023-09-27T09:56:05.175Z,101480.00
2023-09-27T09:57:09.092Z,101483.97
2023-09-27T09:58:21.869Z,101488.19
2023-09-27T09:59:31.795Z,101487.31
2023-09-27T10:00:36.641Z,101483.00
2023-09-27T10:01:43.730Z,101487.16
2023-09-27T10:02:51.313Z,101479.50
2023-09-27T10:03:55.270Z,101490.22
2023-09-27T10:05:00.418Z,101484.97
2023-09-27T10:06:03.731Z,101486.69
2023-09-27T10:07:07.569Z,101481.78
2023-09-27T10:08:10.203Z,101486.25
2023-09-27T10:09:15.869Z,101478.03
2023-09-27T10:10:20.546Z,101484.69
2023-09-27T10:11:27.470Z,101476.31
2023-09-27T10:12:32.073Z,101486.38
2023-09-27T10:13:40.837Z,101468.59
2023-09-27T10:14:44.490Z,101437.47
2023-09-27T10:15:47.651Z,101476.50
2023-09-27T10:16:51.699Z,101468.94
2023-09-27T10:18:03.890Z,101457.37
2023-09-27T10:19:06.942Z,101479.31
2023-09-27T10:20:15.435Z,101481.84
2023-09-27T10:21:18.242Z,101470.78
2023-09-27T10:22:27.335Z,101480.25
2023-09-27T10:23:37.108Z,101417.81
2023-09-27T10:24:43.818Z,101473.31
2023-09-27T10:25:46.540Z,101436.66
2023-09-27T10:26:49.698Z,101463.25
2023-09-27T10:28:13.401Z,101460.81
2023-09-27T10:29:18.021Z,101464.75
2023-09-27T10:30:20.832Z,101463.25
2023-09-27T10:31:23.808Z,101458.19
2023-09-27T10:32:28.251Z,101456.69
2023-09-27T10:33:31.763Z,101457.47
2023-09-27T10:34:42.404Z,101456.41
2023-09-27T10:35:46.002Z,101457.91
2023-09-27T10:36:55.640Z,101454.13
2023-09-27T10:38:08.578Z,101457.53
2023-09-27T10:39:11.926Z,101450.25
2023-09-27T10:40:20.286Z,101452.00
2023-09-27T10:41:44.913Z,101440.97
2023-09-27T10:42:48.030Z,101448.13
2023-09-27T10:43:51.069Z,101449.94
2023-09-27T10:44:55.024Z,101450.44
2023-09-27T10:45:58.752Z,101447.16
2023-09-27T10:47:05.634Z,101445.22
2023-09-27T10:48:19.901Z,101440.87
2023-09-27T10:49:25.968Z,101441.09
2023-09-27T10:50:30.669Z,101441.94
2023-09-27T10:51:34.846Z,101433.56
2023-09-27T10:52:39.828Z,101429.63
2023-09-27T10:53:42.607Z,101430.28
2023-09-27T10:54:46.288Z,101431.50
2023-09-27T10:55:49.201Z,101378.31
2023-09-27T10:56:57.261Z,101425.81
2023-09-27T10:58:00.966Z,101410.13
2023-09-27T10:59:05.321Z,101419.28
2023-09-27T11:00:12.073Z,101419.00
2023-09-27T11:01:20.918Z,101408.06
2023-09-27T11:02:34.008Z,101391.38
2023-09-27T11:03:37.020Z,101405.44
2023-09-27T11:04:42.239Z,101414.53
2023-09-27T11:05:45.202Z,101414.97
2023-09-27T11:06:47.910Z,101413.03
2023-09-27T11:07:52.304Z,101410.59
2023-09-27T11:09:09.144Z,101408.19
2023-09-27T11:10:11.882Z,101374.28
2023-09-27T11:11:14.598Z,101407.28
2023-09-27T11:12:23.973Z,101402.47
2023-09-27T11:13:30.754Z,101403.75
2023-09-27T11:14:35.163Z,101408.94
2023-09-27T11:15:41.879Z,101398.72
2023-09-27T11:16:44.567Z,101412.13
2023-09-27T11:17:55.177Z,101400.81
2023-09-27T11:18:58.858Z,101397.56
2023-09-27T11:20:16.634Z,101340.97
2023-09-27T11:21:20.458Z,101400.25
2023-09-27T11:22:30.152Z,101388.28
2023-09-27T11:23:58.020Z,101404.41
2023-09-27T11:25:01.329Z,101391.62
2023-09-27T11:26:05.955Z,101400.16
2023-09-27T11:27:09.490Z,101397.06
2023-09-27T11:28:16.340Z,101402.72
2023-09-27T11:29:26.599Z,101398.41
2023-09-27T11:30:32.193Z,101396.69
2023-09-27T11:31:37.037Z,101395.47
2023-09-27T11:32:53.007Z,101398.09
2023-09-27T11:34:11.892Z,101394.16
2023-09-27T11:35:20.383Z,101386.22
2023-09-27T11:36:23.648Z,101400.34
2023-09-27T11:37:27.313Z,101399.44
2023-09-27T11:38:30.234Z,101391.25
2023-09-27T11:39:52.466Z,101388.38
2023-09-27T11:41:07.514Z,101389.66
2023-09-27T11:42:10.854Z,101383.47
2023-09-27T11:43:13.895Z,101390.56
2023-09-27T11:44:21.353Z,101387.31
2023-09-27T11:45:24.752Z,101387.50
2023-09-27T11:46:32.403Z,101378.63
2023-09-27T11:47:51.633Z,101380.44
2023-09-27T11:49:07.949Z,101383.44
2023-09-27T11:50:10.923Z,101385.84
2023-09-27T11:51:14.064Z,101368.16
2023-09-27T11:52:16.723Z,101381.69
2023-09-27T11:53:19.697Z,101379.97
2023-09-27T11:54:22.974Z,101378.72
2023-09-27T11:55:25.888Z,101373.31
2023-09-27T11:56:28.763Z,101373.53
2023-09-27T11:57:31.430Z,101344.12
2023-09-27T11:58:34.734Z,101356.19
2023-09-27T11:59:38.870Z,101365.91
2023-09-27T12:00:41.639Z,101369.69
2023-09-27T12:01:44.908Z,101365.56
2023-09-27T12:02:56.435Z,101363.50
2023-09-27T12:04:02.465Z,101342.59
2023-09-27T12:05:06.719Z,101370.22
2023-09-27T12:06:11.204Z,101307.31
2023-09-27T12:07:15.362Z,101363.31
2023-09-27T12:08:18.128Z,101365.50
2023-09-27T12:09:20.944Z,101327.22
2023-09-27T12:10:23.791Z,101362.53
2023-09-27T12:11:26.844Z,101322.84
2023-09-27T12:12:29.908Z,101364.16
2023-09-27T12:13:36.305Z,101349.81
2023-09-27T12:14:39.399Z,101339.63
2023-09-27T12:15:42.421Z,101327.63
2023-09-27T12:16:45.100Z,101360.84
2023-09-27T12:17:48.473Z,101357.53
2023-09-27T12:18:51.557Z,101354.00
2023-09-27T12:19:54.938Z,101356.47